Current | Forecast
Updated: 8:00 PM +10 on June 29, 2017
Observed at Port Moresby Airport, Papua New Guinea
Temperature 79°F
Humidity 89%
Dew Point 75°F
Wind SSE at 7 mph
Pressure 29.83 in (Steady)
Conditions Mostly Cloudy
Visibility 6.2 miles
UV 0 out of 16
Clouds Mostly Cloudy (BKN) : 4000 ft
Yesterday's Maximum 84°F
Yesterday's Minimum 75°F approx.
Yesterday's Cooling Degree Days 15 approx.
Sunrise6:27 AM +10
Sunset6:02 PM +10
Moon Rise10:49 AM +10
Moon Set11:03 PM +10
Moon PhaseMoon Phase
Waxing Crescent
Raw METARMETAR AYPY 291000Z 15006KT 9999 BKN040 26/24 Q1010


Monday
. High: 86° F.
Tuesday
. High: 86° F.
Wednesday
. High: 84° F.
Thursday
. High: 86° F.
Friday
. High: 86° F.
Saturday
. High: 87° F.
Sunday
. High: 86° F.
Monday
. High: 87° F.

Units: English | Metric

Find the Weather for any City, State or Zipcode, or Country:

U.S. State List | Severe Weather | Tropical Storms | Ski Conditions
United States | Canada | Central America | South America | Asia | Europe | Australia | Africa | Islands

Weather Underground

© Copyright 2017
The Weather Company, LLC